createdAt,value
2019-04-30T00:00:30.378Z,6.43
2019-04-30T00:01:28.975Z,6.44
2019-04-30T00:02:34.828Z,6.37
2019-04-30T00:03:29.962Z,6.40
2019-04-30T00:04:29.862Z,6.38
2019-04-30T00:05:29.930Z,6.37
2019-04-30T00:06:34.519Z,6.40
2019-04-30T00:07:29.912Z,6.40
2019-04-30T00:08:30.080Z,6.36
2019-04-30T00:09:29.896Z,6.34
2019-04-30T00:10:35.797Z,6.37
2019-04-30T00:11:29.870Z,6.36
2019-04-30T00:12:30.929Z,6.40
2019-04-30T00:13:29.846Z,6.36
2019-04-30T00:14:36.841Z,6.36
2019-04-30T00:15:29.830Z,6.38
2019-04-30T00:16:31.104Z,6.41
2019-04-30T00:17:29.803Z,6.40
2019-04-30T00:18:30.693Z,6.38
2019-04-30T00:19:29.782Z,6.36
2019-04-30T00:20:30.013Z,6.37
2019-04-30T00:21:29.763Z,6.31
2019-04-30T00:22:33.978Z,6.44
2019-04-30T00:23:30.923Z,6.33
2019-04-30T00:24:28.732Z,6.40
2019-04-30T00:25:28.750Z,6.37
2019-04-30T00:26:28.708Z,6.30
2019-04-30T00:27:30.313Z,6.30
2019-04-30T00:28:28.690Z,6.37
2019-04-30T00:29:31.041Z,6.30
2019-04-30T00:30:28.664Z,6.14
2019-04-30T00:31:28.659Z,6.17
2019-04-30T00:32:28.644Z,6.19
2019-04-30T00:33:28.636Z,6.12
2019-04-30T00:34:31.024Z,6.09
2019-04-30T00:35:29.611Z,6.15
2019-04-30T00:36:34.231Z,6.08
2019-04-30T00:37:29.590Z,6.17
2019-04-30T00:38:29.594Z,6.06
2019-04-30T00:39:28.568Z,6.04
2019-04-30T00:40:30.118Z,6.00
2019-04-30T00:41:30.266Z,6.00
2019-04-30T00:42:28.936Z,6.01
2019-04-30T00:43:28.529Z,5.89
2019-04-30T00:44:28.593Z,6.00
2019-04-30T00:45:28.505Z,5.90
2019-04-30T00:46:29.452Z,5.90
2019-04-30T00:47:28.486Z,5.86
2019-04-30T00:48:31.200Z,5.94
2019-04-30T00:49:28.466Z,5.97
2019-04-30T00:50:29.028Z,5.91
2019-04-30T00:51:28.447Z,5.91
2019-04-30T00:52:29.438Z,5.96
2019-04-30T00:53:29.424Z,5.93
2019-04-30T00:54:30.874Z,5.89
2019-04-30T00:55:28.399Z,5.79
2019-04-30T00:56:28.456Z,5.83
2019-04-30T00:57:28.376Z,5.89
2019-04-30T00:58:30.238Z,5.86
2019-04-30T00:59:28.356Z,5.86
2019-04-30T01:00:29.730Z,5.89
2019-04-30T01:01:28.335Z,5.94
2019-04-30T01:02:32.105Z,5.97
2019-04-30T01:03:28.317Z,5.96
2019-04-30T01:04:28.315Z,5.90
2019-04-30T01:05:28.292Z,5.85
2019-04-30T01:06:28.761Z,5.75
2019-04-30T01:07:28.272Z,5.78
2019-04-30T01:08:28.753Z,5.83
2019-04-30T01:09:28.255Z,5.72
2019-04-30T01:10:28.480Z,5.76
2019-04-30T01:11:28.226Z,5.82
2019-04-30T01:12:33.455Z,5.81
2019-04-30T01:13:29.204Z,5.83
2019-04-30T01:14:31.871Z,5.76
2019-04-30T01:15:29.173Z,5.75
2019-04-30T01:16:32.947Z,5.81
2019-04-30T01:17:29.968Z,5.72
2019-04-30T01:18:31.923Z,5.74
2019-04-30T01:19:30.646Z,5.76
2019-04-30T01:20:31.559Z,5.72
2019-04-30T01:21:28.554Z,5.60
2019-04-30T01:22:32.626Z,5.63
2019-04-30T01:23:29.636Z,5.64
2019-04-30T01:24:31.423Z,5.60
2019-04-30T01:25:28.815Z,5.60
2019-04-30T01:26:31.040Z,5.64
2019-04-30T01:27:28.412Z,5.57
2019-04-30T01:28:28.438Z,5.63
2019-04-30T01:29:31.122Z,5.61
2019-04-30T01:30:29.028Z,5.56
2019-04-30T01:31:33.018Z,5.54
2019-04-30T01:32:29.001Z,5.58
2019-04-30T01:33:34.386Z,5.51
2019-04-30T01:34:29.436Z,5.46
2019-04-30T01:35:32.454Z,5.58
2019-04-30T01:36:29.376Z,5.54
2019-04-30T01:37:29.594Z,5.48
2019-04-30T01:38:28.724Z,5.49
2019-04-30T01:39:31.567Z,5.46
2019-04-30T01:40:28.557Z,5.58
2019-04-30T01:41:31.296Z,5.63
2019-04-30T01:42:28.421Z,5.63
2019-04-30T01:43:31.569Z,5.53
2019-04-30T01:44:29.497Z,5.58
2019-04-30T01:45:31.493Z,5.53
2019-04-30T01:46:29.165Z,5.49
2019-04-30T01:47:34.816Z,5.51
2019-04-30T01:48:29.263Z,5.56
2019-04-30T01:49:30.074Z,5.53
2019-04-30T01:50:29.262Z,5.64
2019-04-30T01:51:28.576Z,5.61
2019-04-30T01:52:29.214Z,5.57
2019-04-30T01:53:28.780Z,5.60
2019-04-30T01:54:29.149Z,5.57
2019-04-30T01:55:29.366Z,5.63
2019-04-30T01:56:28.934Z,5.56
2019-04-30T01:57:29.265Z,5.58
2019-04-30T01:58:29.983Z,5.67
2019-04-30T01:59:29.134Z,5.64
2019-04-30T02:00:29.317Z,5.58
2019-04-30T02:01:28.604Z,5.57
2019-04-30T02:02:28.627Z,5.54
2019-04-30T02:03:29.193Z,5.57
2019-04-30T02:04:29.010Z,5.58
2019-04-30T02:05:28.780Z,5.58
2019-04-30T02:06:29.328Z,5.60
2019-04-30T02:07:28.734Z,5.61
2019-04-30T02:08:29.405Z,5.61
2019-04-30T02:09:28.651Z,5.64
2019-04-30T02:10:28.521Z,5.63
2019-04-30T02:11:28.840Z,5.65
2019-04-30T02:12:29.549Z,5.58
2019-04-30T02:13:31.186Z,5.56
2019-04-30T02:14:28.748Z,5.58
2019-04-30T02:15:29.155Z,5.57
2019-04-30T02:16:28.959Z,5.63
2019-04-30T02:17:29.213Z,5.46
2019-04-30T02:18:29.444Z,5.49
2019-04-30T02:19:28.774Z,5.60
2019-04-30T02:20:28.706Z,5.57
2019-04-30T02:21:27.482Z,5.49
2019-04-30T02:22:28.824Z,5.49
2019-04-30T02:23:29.531Z,5.60
2019-04-30T02:24:28.855Z,5.54
2019-04-30T02:25:29.361Z,5.57
2019-04-30T02:26:28.628Z,5.51
2019-04-30T02:27:29.469Z,5.49
2019-04-30T02:28:28.996Z,5.48
2019-04-30T02:29:27.395Z,5.35
2019-04-30T02:30:30.496Z,5.36
2019-04-30T02:31:27.382Z,5.40
2019-04-30T02:32:30.202Z,5.36
2019-04-30T02:33:30.346Z,5.38
2019-04-30T02:34:30.089Z,5.28
2019-04-30T02:35:28.830Z,5.28
2019-04-30T02:36:29.850Z,5.24
2019-04-30T02:37:29.972Z,5.21
2019-04-30T02:38:29.862Z,5.13
2019-04-30T02:39:30.128Z,5.20
2019-04-30T02:40:30.019Z,5.21
2019-04-30T02:41:29.293Z,5.17
2019-04-30T02:42:29.604Z,5.04
2019-04-30T02:43:29.869Z,5.00
2019-04-30T02:44:29.255Z,5.10
2019-04-30T02:45:29.851Z,4.94
2019-04-30T02:46:31.936Z,4.99
2019-04-30T02:47:30.215Z,4.92
2019-04-30T02:48:29.247Z,4.97
2019-04-30T02:49:29.963Z,5.02
2019-04-30T02:50:29.386Z,4.92
2019-04-30T02:51:29.522Z,4.94
2019-04-30T02:52:29.399Z,4.88
2019-04-30T02:53:29.240Z,4.91
2019-04-30T02:54:29.455Z,4.78
2019-04-30T02:55:29.610Z,4.89
2019-04-30T02:56:29.522Z,4.77
2019-04-30T02:57:29.794Z,4.73
2019-04-30T02:58:29.366Z,4.70
2019-04-30T02:59:29.893Z,4.69
2019-04-30T03:00:29.784Z,4.62
2019-04-30T03:01:30.290Z,4.66
2019-04-30T03:02:29.050Z,4.70
2019-04-30T03:03:29.804Z,4.65
2019-04-30T03:04:29.256Z,4.66
2019-04-30T03:05:27.024Z,4.66
2019-04-30T03:06:29.725Z,4.59
2019-04-30T03:07:29.370Z,4.59
2019-04-30T03:08:29.565Z,4.60
2019-04-30T03:09:29.515Z,4.54
2019-04-30T03:10:26.959Z,4.65
2019-04-30T03:11:29.852Z,4.52
2019-04-30T03:12:26.937Z,4.59
2019-04-30T03:13:29.716Z,4.51
2019-04-30T03:14:26.916Z,4.59
2019-04-30T03:15:29.607Z,4.55
2019-04-30T03:16:26.904Z,4.59
2019-04-30T03:17:29.285Z,4.70
2019-04-30T03:18:30.049Z,4.67
2019-04-30T03:19:29.339Z,4.66
2019-04-30T03:20:32.621Z,4.67
2019-04-30T03:21:29.046Z,4.72
2019-04-30T03:22:26.831Z,4.69
2019-04-30T03:23:29.225Z,4.67
2019-04-30T03:24:29.410Z,4.66
2019-04-30T03:25:29.661Z,4.55
2019-04-30T03:26:29.620Z,4.66
2019-04-30T03:27:26.779Z,4.52
2019-04-30T03:28:29.877Z,4.58
2019-04-30T03:29:26.758Z,4.55
2019-04-30T03:30:31.523Z,4.59
2019-04-30T03:31:32.031Z,4.55
2019-04-30T03:32:31.682Z,4.50
2019-04-30T03:33:32.207Z,4.48
2019-04-30T03:34:31.877Z,4.55
2019-04-30T03:35:31.726Z,4.58
2019-04-30T03:36:26.686Z,4.58
2019-04-30T03:37:26.673Z,4.51
2019-04-30T03:38:26.663Z,4.45
2019-04-30T03:39:26.648Z,4.48
2019-04-30T03:40:26.639Z,4.50
2019-04-30T03:41:26.636Z,4.41
2019-04-30T03:42:26.622Z,4.42
2019-04-30T03:43:26.608Z,4.41
2019-04-30T03:44:31.581Z,4.44
2019-04-30T03:45:30.049Z,4.45
2019-04-30T03:46:29.645Z,4.44
2019-04-30T03:47:26.569Z,4.40
2019-04-30T03:48:29.262Z,4.47
2019-04-30T03:49:26.542Z,4.42
2019-04-30T03:50:32.837Z,4.47
2019-04-30T03:51:29.783Z,4.47
2019-04-30T03:52:29.047Z,4.45
2019-04-30T03:53:26.503Z,4.51
2019-04-30T03:54:29.063Z,4.47
2019-04-30T03:55:26.479Z,4.40
2019-04-30T03:56:26.474Z,4.45
2019-04-30T03:57:26.457Z,4.30
2019-04-30T03:58:29.127Z,4.42
2019-04-30T03:59:26.437Z,4.33
2019-04-30T04:00:26.429Z,4.34
2019-04-30T04:01:26.416Z,4.37
2019-04-30T04:02:26.405Z,4.32
2019-04-30T04:03:26.396Z,4.40
2019-04-30T04:04:26.390Z,4.33
2019-04-30T04:05:26.374Z,4.40
2019-04-30T04:06:26.367Z,4.42
2019-04-30T04:07:26.355Z,4.37
2019-04-30T04:08:26.341Z,4.40
2019-04-30T04:09:26.333Z,4.47
2019-04-30T04:10:26.324Z,4.41
2019-04-30T04:11:26.309Z,4.51
2019-04-30T04:12:26.300Z,4.37
2019-04-30T04:13:26.316Z,4.40
2019-04-30T04:14:26.277Z,4.44
2019-04-30T04:15:26.271Z,4.37
2019-04-30T04:16:26.261Z,4.48
2019-04-30T04:17:26.245Z,4.48
2019-04-30T04:18:26.238Z,4.47
2019-04-30T04:19:26.225Z,4.48
2019-04-30T04:20:26.214Z,4.48
2019-04-30T04:21:26.210Z,4.52
2019-04-30T04:22:26.192Z,4.50
2019-04-30T04:23:26.186Z,4.50
2019-04-30T04:24:26.171Z,4.52
2019-04-30T04:25:26.161Z,4.58
2019-04-30T04:26:26.151Z,4.54
2019-04-30T04:27:26.149Z,4.55
2019-04-30T04:28:26.130Z,4.59
2019-04-30T04:29:26.118Z,4.54
2019-04-30T04:30:26.110Z,4.63
2019-04-30T04:31:26.099Z,4.69
2019-04-30T04:32:26.087Z,4.69
2019-04-30T04:33:26.090Z,4.70
2019-04-30T04:34:26.071Z,4.77
2019-04-30T04:35:26.054Z,4.70
2019-04-30T04:36:26.045Z,4.73
2019-04-30T04:37:26.070Z,4.78
2019-04-30T04:38:26.022Z,4.82
2019-04-30T04:39:26.017Z,4.86
2019-04-30T04:40:25.999Z,4.91
2019-04-30T04:41:25.990Z,4.84
2019-04-30T04:42:25.978Z,4.85
2019-04-30T04:43:25.969Z,4.88
2019-04-30T04:44:25.961Z,4.84
2019-04-30T04:45:25.951Z,4.89
2019-04-30T04:46:25.947Z,4.88
2019-04-30T04:47:25.928Z,4.97
2019-04-30T04:48:25.915Z,4.94
2019-04-30T04:49:25.909Z,5.00
2019-04-30T04:50:25.893Z,5.03
2019-04-30T04:51:34.370Z,5.04
2019-04-30T04:52:26.873Z,5.04
2019-04-30T04:53:25.863Z,5.02
2019-04-30T04:54:25.854Z,5.09
2019-04-30T04:55:25.845Z,5.10
2019-04-30T04:56:25.828Z,5.06
2019-04-30T04:57:25.824Z,5.17
2019-04-30T04:58:25.809Z,5.18
2019-04-30T04:59:25.805Z,5.25
2019-04-30T05:00:25.792Z,5.27
2019-04-30T05:01:25.775Z,5.30
2019-04-30T05:02:25.766Z,5.30
2019-04-30T05:03:25.755Z,5.45
2019-04-30T05:04:25.744Z,5.40
2019-04-30T05:05:25.737Z,5.36
2019-04-30T05:06:25.723Z,5.48
2019-04-30T05:07:25.713Z,5.54
2019-04-30T05:08:25.701Z,5.57
2019-04-30T05:09:25.691Z,5.61
2019-04-30T05:10:25.692Z,5.57
2019-04-30T05:11:25.669Z,5.65
2019-04-30T05:12:25.658Z,5.72
2019-04-30T05:13:25.648Z,5.72
2019-04-30T05:14:25.647Z,5.82
2019-04-30T05:15:25.627Z,5.76
2019-04-30T05:16:25.617Z,5.86
2019-04-30T05:17:25.606Z,5.86
2019-04-30T05:18:25.596Z,6.00
2019-04-30T05:19:25.587Z,5.97
2019-04-30T05:20:25.574Z,5.96
2019-04-30T05:21:25.563Z,6.04
2019-04-30T05:22:25.553Z,6.08
2019-04-30T05:23:25.540Z,6.17
2019-04-30T05:24:25.531Z,6.22
2019-04-30T05:25:25.519Z,6.36
2019-04-30T05:26:25.507Z,6.37
2019-04-30T05:27:25.498Z,6.34
2019-04-30T05:28:25.487Z,6.41
2019-04-30T05:29:25.478Z,6.40
2019-04-30T05:30:25.466Z,6.46
2019-04-30T05:31:25.454Z,6.64
2019-04-30T05:32:25.445Z,6.89
2019-04-30T05:33:25.433Z,7.15
2019-04-30T05:34:25.423Z,7.34
2019-04-30T05:35:25.411Z,7.45
2019-04-30T05:36:25.401Z,7.61
2019-04-30T05:37:25.391Z,7.53
2019-04-30T05:38:25.378Z,7.49
2019-04-30T05:39:25.370Z,7.40
2019-04-30T05:40:25.359Z,7.48
2019-04-30T05:41:25.350Z,7.82
2019-04-30T05:42:25.337Z,8.08
2019-04-30T05:43:25.326Z,8.04
2019-04-30T05:44:25.316Z,7.89
2019-04-30T05:45:25.305Z,7.82
2019-04-30T05:46:25.294Z,7.83
2019-04-30T05:47:25.285Z,7.85
2019-04-30T05:48:25.275Z,7.86
2019-04-30T05:49:25.266Z,7.90
2019-04-30T05:50:25.254Z,7.92
2019-04-30T05:51:25.244Z,8.22
2019-04-30T05:52:25.234Z,8.18
2019-04-30T05:53:25.220Z,8.02
2019-04-30T05:54:25.214Z,8.02
2019-04-30T05:55:25.196Z,8.10
2019-04-30T05:56:25.189Z,8.36
2019-04-30T05:57:25.177Z,8.50
2019-04-30T05:58:25.185Z,8.79
2019-04-30T05:59:25.155Z,9.01
2019-04-30T06:00:25.144Z,9.26
2019-04-30T06:01:25.133Z,9.46
2019-04-30T06:02:25.129Z,9.94
2019-04-30T06:03:30.160Z,10.08
2019-04-30T06:04:26.104Z,10.14
2019-04-30T06:05:25.090Z,10.42
2019-04-30T06:06:25.080Z,10.79
2019-04-30T06:07:25.068Z,11.11
2019-04-30T06:08:25.067Z,11.35
2019-04-30T06:09:33.238Z,11.39
2019-04-30T06:10:26.035Z,11.28
2019-04-30T06:11:25.026Z,11.10
2019-04-30T06:12:25.016Z,11.47
2019-04-30T06:13:25.007Z,11.80
2019-04-30T06:14:24.993Z,11.75
2019-04-30T06:15:24.984Z,11.67
2019-04-30T06:16:24.974Z,11.67
2019-04-30T06:17:24.960Z,11.69
2019-04-30T06:18:24.950Z,11.72
2019-04-30T06:19:24.938Z,11.42
2019-04-30T06:20:24.929Z,11.42
2019-04-30T06:21:24.922Z,11.28
2019-04-30T06:22:24.906Z,11.39
2019-04-30T06:23:24.904Z,11.44
2019-04-30T06:24:24.884Z,11.51
2019-04-30T06:25:32.477Z,11.39
2019-04-30T06:26:25.882Z,11.61
2019-04-30T06:27:24.873Z,11.80
2019-04-30T06:28:24.842Z,12.13
2019-04-30T06:29:24.834Z,12.28
2019-04-30T06:30:24.818Z,12.41
2019-04-30T06:31:32.232Z,12.49
2019-04-30T06:32:25.795Z,12.45
2019-04-30T06:33:24.790Z,12.49
2019-04-30T06:34:24.775Z,12.34
2019-04-30T06:35:24.764Z,12.42
2019-04-30T06:36:24.754Z,12.49
2019-04-30T06:37:24.751Z,12.49
2019-04-30T06:38:24.733Z,12.31
2019-04-30T06:39:24.729Z,12.64
2019-04-30T06:40:24.711Z,12.95
2019-04-30T06:41:24.701Z,12.97
2019-04-30T06:42:24.691Z,13.03
2019-04-30T06:43:24.679Z,13.11
2019-04-30T06:44:34.868Z,12.68
2019-04-30T06:45:25.656Z,12.60
2019-04-30T06:46:24.649Z,12.59
2019-04-30T06:47:32.738Z,12.42
2019-04-30T06:48:25.624Z,12.32
2019-04-30T06:49:24.617Z,12.60
2019-04-30T06:50:24.605Z,12.37
2019-04-30T06:51:24.592Z,12.31
2019-04-30T06:52:24.581Z,12.35
2019-04-30T06:53:24.572Z,12.27
2019-04-30T06:54:24.561Z,12.32
2019-04-30T06:55:24.549Z,12.31
2019-04-30T06:56:24.540Z,12.32
2019-04-30T06:57:24.528Z,12.46
2019-04-30T06:58:24.517Z,12.38
2019-04-30T06:59:24.507Z,12.34
2019-04-30T07:00:32.749Z,12.65
2019-04-30T07:01:25.487Z,12.45
2019-04-30T07:02:24.479Z,12.46
2019-04-30T07:03:24.466Z,12.62
2019-04-30T07:04:24.453Z,12.90
2019-04-30T07:05:24.442Z,13.15
2019-04-30T07:06:29.688Z,13.05
2019-04-30T07:07:36.254Z,13.25
2019-04-30T07:08:36.057Z,13.52
2019-04-30T07:09:26.663Z,13.33
2019-04-30T07:10:25.390Z,13.45
2019-04-30T07:11:24.377Z,13.51
2019-04-30T07:12:27.805Z,13.63
2019-04-30T07:13:25.356Z,13.73
2019-04-30T07:14:24.345Z,13.67
2019-04-30T07:15:24.337Z,13.71
2019-04-30T07:16:24.323Z,13.75
2019-04-30T07:17:24.312Z,13.75
2019-04-30T07:18:24.302Z,13.60
2019-04-30T07:19:32.961Z,13.29
2019-04-30T07:20:25.280Z,13.25
2019-04-30T07:21:24.270Z,13.52
2019-04-30T07:22:37.648Z,13.77
2019-04-30T07:23:25.248Z,13.69
2019-04-30T07:24:24.308Z,13.77
2019-04-30T07:25:24.234Z,14.03
2019-04-30T07:26:24.811Z,14.12
2019-04-30T07:27:24.436Z,13.87
2019-04-30T07:28:41.246Z,13.63
2019-04-30T07:29:25.195Z,13.63
2019-04-30T07:30:24.173Z,13.79
2019-04-30T07:31:24.166Z,14.17
2019-04-30T07:32:24.151Z,14.09
2019-04-30T07:33:24.142Z,14.21
2019-04-30T07:34:24.131Z,14.36
2019-04-30T07:35:24.121Z,14.29
2019-04-30T07:36:42.467Z,14.25
2019-04-30T07:37:25.098Z,14.36
2019-04-30T07:38:24.088Z,14.28
2019-04-30T07:39:29.255Z,14.47
2019-04-30T07:40:25.065Z,14.77
2019-04-30T07:41:24.057Z,14.88
2019-04-30T07:42:24.044Z,15.14
2019-04-30T07:43:24.034Z,15.19
2019-04-30T07:44:35.422Z,14.88
2019-04-30T07:45:25.662Z,14.86
2019-04-30T07:46:24.004Z,15.14
2019-04-30T07:47:24.020Z,15.38
2019-04-30T07:48:26.508Z,15.29
2019-04-30T07:49:23.975Z,15.31
2019-04-30T07:50:24.468Z,15.34
2019-04-30T07:51:24.725Z,15.32
2019-04-30T07:52:24.683Z,15.25
2019-04-30T07:53:23.934Z,15.14
2019-04-30T07:54:23.919Z,15.20
2019-04-30T07:55:23.908Z,15.28
2019-04-30T07:56:28.267Z,15.60
2019-04-30T07:57:24.885Z,15.53
2019-04-30T07:58:23.876Z,15.59
2019-04-30T07:59:23.865Z,15.80
2019-04-30T08:00:23.855Z,16.14
2019-04-30T08:01:23.844Z,16.34
2019-04-30T08:02:24.643Z,16.09
2019-04-30T08:03:24.068Z,16.01
2019-04-30T08:04:23.822Z,16.28
2019-04-30T08:05:23.809Z,16.31
2019-04-30T08:06:23.857Z,16.46
2019-04-30T08:07:23.815Z,16.34
2019-04-30T08:08:25.659Z,16.53
2019-04-30T08:09:23.762Z,16.66
2019-04-30T08:10:23.752Z,16.45
2019-04-30T08:11:26.321Z,16.56
2019-04-30T08:12:30.347Z,16.31
2019-04-30T08:13:25.244Z,16.42
2019-04-30T08:14:24.682Z,16.64
2019-04-30T08:15:23.701Z,16.41
2019-04-30T08:16:23.692Z,16.27
2019-04-30T08:17:23.686Z,16.17
2019-04-30T08:18:23.672Z,16.15
2019-04-30T08:19:23.661Z,16.67
2019-04-30T08:20:23.653Z,16.93
2019-04-30T08:21:23.640Z,17.06
2019-04-30T08:22:23.630Z,17.25
2019-04-30T08:23:34.031Z,17.68
2019-04-30T08:24:24.612Z,17.78
2019-04-30T08:25:23.599Z,17.68
2019-04-30T08:26:23.592Z,17.84
2019-04-30T08:27:23.581Z,18.11
2019-04-30T08:28:23.569Z,17.97
2019-04-30T08:29:23.565Z,18.27
2019-04-30T08:30:26.742Z,18.55
2019-04-30T08:31:23.539Z,18.63
2019-04-30T08:32:23.529Z,18.94
2019-04-30T08:33:23.521Z,18.51
2019-04-30T08:34:23.508Z,18.51
2019-04-30T08:35:23.503Z,18.33
2019-04-30T08:36:23.491Z,18.10
2019-04-30T08:37:23.477Z,18.18
2019-04-30T08:38:23.468Z,17.99
2019-04-30T08:39:23.458Z,17.64
2019-04-30T08:40:23.447Z,17.75
2019-04-30T08:41:23.439Z,17.93
2019-04-30T08:42:32.759Z,18.36
2019-04-30T08:43:24.416Z,18.65
2019-04-30T08:44:23.410Z,18.85
2019-04-30T08:45:23.399Z,18.75
2019-04-30T08:46:23.393Z,19.11
2019-04-30T08:47:23.395Z,19.43
2019-04-30T08:48:23.368Z,20.05
2019-04-30T08:49:23.647Z,19.99
2019-04-30T08:50:23.366Z,20.48
2019-04-30T08:51:23.350Z,20.42
2019-04-30T08:52:23.496Z,20.17
2019-04-30T08:53:29.291Z,19.80
2019-04-30T08:54:24.312Z,19.43
2019-04-30T08:55:23.300Z,19.77
2019-04-30T08:56:23.290Z,20.08
2019-04-30T08:57:23.279Z,19.98
2019-04-30T08:58:23.270Z,20.24
2019-04-30T08:59:23.261Z,20.54
2019-04-30T09:00:23.251Z,20.88
2019-04-30T09:01:23.240Z,21.07
2019-04-30T09:02:23.232Z,20.67
2019-04-30T09:03:23.223Z,20.39
2019-04-30T09:04:23.212Z,20.01
2019-04-30T09:05:23.203Z,20.08
2019-04-30T09:06:23.198Z,20.41
2019-04-30T09:07:23.184Z,21.06
2019-04-30T09:08:23.175Z,20.98
2019-04-30T09:09:23.175Z,20.88
2019-04-30T09:10:23.156Z,20.88
2019-04-30T09:11:30.207Z,21.04
2019-04-30T09:12:24.135Z,21.21
2019-04-30T09:13:23.126Z,21.42
2019-04-30T09:14:23.121Z,21.22
2019-04-30T09:15:23.109Z,21.19
2019-04-30T09:16:23.098Z,21.50
2019-04-30T09:17:23.091Z,21.50
2019-04-30T09:18:23.078Z,21.64
2019-04-30T09:19:23.068Z,21.82
2019-04-30T09:20:23.060Z,22.02
2019-04-30T09:21:23.050Z,21.75
2019-04-30T09:22:23.039Z,21.94
2019-04-30T09:23:23.031Z,21.98
2019-04-30T09:24:23.028Z,21.90
2019-04-30T09:25:23.019Z,21.65
2019-04-30T09:26:23.002Z,21.50
2019-04-30T09:27:22.991Z,21.03
2019-04-30T09:28:22.988Z,21.34
2019-04-30T09:29:22.973Z,21.32
2019-04-30T09:30:22.967Z,21.13
2019-04-30T09:31:22.962Z,20.52
2019-04-30T09:32:22.950Z,20.61
2019-04-30T09:33:22.935Z,20.98
2019-04-30T09:34:22.926Z,20.85
2019-04-30T09:35:22.915Z,21.21
2019-04-30T09:36:22.905Z,21.58
2019-04-30T09:37:22.895Z,21.71
2019-04-30T09:38:22.885Z,21.86
2019-04-30T09:39:23.247Z,21.67
2019-04-30T09:40:22.869Z,21.64
2019-04-30T09:41:22.857Z,21.71
2019-04-30T09:42:22.847Z,21.68
2019-04-30T09:43:22.842Z,21.71
2019-04-30T09:44:22.828Z,21.77
2019-04-30T09:45:22.823Z,21.22
2019-04-30T09:46:27.084Z,21.31
2019-04-30T09:47:22.801Z,21.77
2019-04-30T09:48:22.790Z,21.77
2019-04-30T09:49:22.780Z,21.83
2019-04-30T09:50:22.772Z,22.02
2019-04-30T09:51:24.641Z,22.37
2019-04-30T09:52:22.780Z,22.62
2019-04-30T09:53:22.864Z,22.94
2019-04-30T09:54:23.087Z,22.86
2019-04-30T09:55:22.725Z,22.90
2019-04-30T09:56:22.715Z,23.09
2019-04-30T09:57:22.717Z,22.85
2019-04-30T09:58:22.698Z,22.51
2019-04-30T09:59:22.688Z,22.54
2019-04-30T10:00:22.678Z,22.90
2019-04-30T10:01:22.672Z,23.05
2019-04-30T10:02:22.657Z,23.17
2019-04-30T10:03:23.453Z,22.55
2019-04-30T10:04:23.077Z,22.40
2019-04-30T10:05:22.634Z,22.64
2019-04-30T10:06:22.621Z,22.64
2019-04-30T10:07:22.613Z,22.28
2019-04-30T10:08:22.881Z,22.30
2019-04-30T10:09:22.593Z,22.21
2019-04-30T10:10:22.584Z,22.43
2019-04-30T10:11:22.575Z,22.55
2019-04-30T10:12:22.567Z,22.36
2019-04-30T10:13:22.556Z,22.36
2019-04-30T10:14:22.550Z,22.46
2019-04-30T10:15:22.537Z,22.72
2019-04-30T10:16:22.531Z,22.86
2019-04-30T10:17:22.520Z,23.07
2019-04-30T10:18:22.510Z,22.86
2019-04-30T10:19:22.500Z,22.62
2019-04-30T10:20:22.490Z,22.64
2019-04-30T10:21:22.481Z,22.51
2019-04-30T10:22:22.471Z,22.42
2019-04-30T10:23:22.461Z,21.72
2019-04-30T10:24:22.452Z,21.92
2019-04-30T10:25:22.444Z,21.37
2019-04-30T10:26:22.435Z,21.96
2019-04-30T10:27:22.425Z,22.61
2019-04-30T10:28:22.419Z,22.52
2019-04-30T10:29:22.407Z,22.18
2019-04-30T10:30:22.397Z,22.22
2019-04-30T10:31:22.391Z,22.55
2019-04-30T10:32:22.377Z,22.49
2019-04-30T10:33:22.370Z,22.40
2019-04-30T10:34:22.360Z,22.40
2019-04-30T10:35:22.355Z,22.57
2019-04-30T10:36:22.345Z,22.64
2019-04-30T10:37:22.356Z,22.43
2019-04-30T10:38:22.321Z,22.36
2019-04-30T10:39:22.329Z,22.62
2019-04-30T10:40:22.303Z,22.67
2019-04-30T10:41:22.319Z,23.15
2019-04-30T10:42:22.284Z,23.32
2019-04-30T10:43:22.279Z,23.50
2019-04-30T10:44:22.265Z,23.47
2019-04-30T10:45:22.258Z,22.65
2019-04-30T10:46:22.256Z,22.61
2019-04-30T10:47:22.236Z,22.43
2019-04-30T10:48:22.232Z,22.80
2019-04-30T10:49:22.249Z,22.85
2019-04-30T10:50:22.212Z,22.77
2019-04-30T10:51:22.203Z,22.51
2019-04-30T10:52:22.200Z,22.51
2019-04-30T10:53:22.183Z,22.65
2019-04-30T10:54:25.732Z,23.09
2019-04-30T10:55:22.162Z,23.10
2019-04-30T10:56:22.153Z,23.32
2019-04-30T10:57:22.146Z,22.49
2019-04-30T10:58:22.233Z,22.64
2019-04-30T10:59:22.125Z,23.10
2019-04-30T11:00:22.117Z,23.17
2019-04-30T11:01:22.108Z,23.28
2019-04-30T11:02:22.097Z,23.12
2019-04-30T11:03:23.084Z,23.31
2019-04-30T11:04:22.077Z,23.19
2019-04-30T11:05:22.069Z,23.46
2019-04-30T11:06:22.060Z,23.66
2019-04-30T11:07:22.058Z,23.60
2019-04-30T11:08:22.040Z,23.80
2019-04-30T11:09:22.040Z,23.79
2019-04-30T11:10:22.022Z,23.57
2019-04-30T11:11:22.014Z,23.63
2019-04-30T11:12:22.004Z,23.69
2019-04-30T11:13:21.996Z,23.61
2019-04-30T11:14:21.983Z,23.91
2019-04-30T11:15:21.976Z,24.15
2019-04-30T11:16:21.966Z,24.40
2019-04-30T11:17:22.129Z,24.50
2019-04-30T11:18:22.190Z,24.57
2019-04-30T11:19:22.114Z,24.31
2019-04-30T11:20:22.420Z,23.91
2019-04-30T11:21:22.104Z,23.73
2019-04-30T11:22:22.127Z,24.21
2019-04-30T11:23:22.111Z,24.49
2019-04-30T11:24:22.089Z,24.64
2019-04-30T11:25:22.334Z,24.45
2019-04-30T11:26:22.249Z,24.22
2019-04-30T11:27:22.570Z,24.15
2019-04-30T11:28:22.281Z,24.28
2019-04-30T11:29:23.205Z,24.24
2019-04-30T11:30:24.310Z,24.39
2019-04-30T11:31:22.031Z,24.10
2019-04-30T11:32:22.063Z,24.25
2019-04-30T11:33:22.010Z,24.55
2019-04-30T11:34:21.799Z,24.84
2019-04-30T11:35:21.789Z,24.73
2019-04-30T11:36:21.779Z,24.88
2019-04-30T11:37:21.772Z,25.17
2019-04-30T11:38:21.776Z,25.17
2019-04-30T11:39:21.752Z,25.39
2019-04-30T11:40:31.136Z,24.85
2019-04-30T11:41:30.985Z,24.43
2019-04-30T11:42:22.724Z,24.31
2019-04-30T11:43:21.714Z,24.15
2019-04-30T11:44:30.410Z,23.79
2019-04-30T11:45:22.692Z,23.61
2019-04-30T11:46:21.685Z,23.28
2019-04-30T11:47:21.676Z,23.32
2019-04-30T11:48:21.666Z,23.07
2019-04-30T11:49:21.658Z,22.72
2019-04-30T11:50:21.649Z,23.13
2019-04-30T11:51:21.639Z,23.31
2019-04-30T11:52:21.631Z,23.46
2019-04-30T11:53:27.813Z,23.68
2019-04-30T11:54:22.609Z,23.35
2019-04-30T11:55:21.601Z,23.32
2019-04-30T11:56:21.591Z,23.39
2019-04-30T11:57:21.581Z,23.61
2019-04-30T11:58:22.080Z,23.94
2019-04-30T11:59:21.562Z,24.22
2019-04-30T12:00:21.549Z,23.91
2019-04-30T12:01:21.543Z,23.60
2019-04-30T12:02:21.531Z,23.54
2019-04-30T12:03:21.526Z,23.01
2019-04-30T12:04:21.513Z,22.58
2019-04-30T12:05:21.505Z,22.61
2019-04-30T12:06:21.491Z,22.70
2019-04-30T12:07:21.483Z,23.05
2019-04-30T12:08:21.473Z,23.28
2019-04-30T12:09:21.465Z,23.15
2019-04-30T12:10:21.451Z,22.94
2019-04-30T12:11:21.443Z,23.19
2019-04-30T12:12:21.435Z,23.43
2019-04-30T12:13:21.425Z,23.43
2019-04-30T12:14:21.415Z,23.47
2019-04-30T12:15:21.404Z,23.66
2019-04-30T12:16:21.395Z,23.73
2019-04-30T12:17:21.383Z,23.58
2019-04-30T12:18:21.373Z,23.35
2019-04-30T12:19:21.362Z,23.16
2019-04-30T12:20:21.352Z,23.04
2019-04-30T12:21:21.341Z,23.16
2019-04-30T12:22:21.333Z,22.77
2019-04-30T12:23:21.322Z,22.65
2019-04-30T12:24:21.313Z,22.70
2019-04-30T12:25:21.302Z,23.02
2019-04-30T12:26:21.294Z,23.02
2019-04-30T12:27:21.280Z,22.86
2019-04-30T12:28:21.272Z,23.09
2019-04-30T12:29:21.261Z,23.36
2019-04-30T12:30:21.252Z,23.43
2019-04-30T12:31:21.242Z,23.53
2019-04-30T12:32:21.464Z,23.80
2019-04-30T12:33:21.221Z,23.93
2019-04-30T12:34:21.212Z,23.80
2019-04-30T12:35:21.202Z,23.69
2019-04-30T12:36:21.192Z,23.88
2019-04-30T12:37:21.184Z,23.83
2019-04-30T12:38:21.172Z,24.09
2019-04-30T12:39:21.164Z,23.97
2019-04-30T12:40:28.948Z,23.93
2019-04-30T12:41:22.140Z,24.00
2019-04-30T12:42:21.137Z,24.30
2019-04-30T12:43:21.123Z,24.06
2019-04-30T12:44:21.116Z,24.12
2019-04-30T12:45:21.100Z,23.95
2019-04-30T12:46:21.359Z,23.85
2019-04-30T12:47:22.011Z,23.61
2019-04-30T12:48:21.072Z,23.83
2019-04-30T12:49:21.060Z,23.80
2019-04-30T12:50:21.050Z,23.94
2019-04-30T12:51:21.039Z,24.24
2019-04-30T12:52:21.028Z,23.60
2019-04-30T12:53:21.018Z,23.48
2019-04-30T12:54:21.008Z,23.50
2019-04-30T12:55:22.586Z,23.16
2019-04-30T12:56:26.661Z,23.09
2019-04-30T12:57:21.976Z,23.39
2019-04-30T12:58:20.965Z,23.40
2019-04-30T12:59:20.958Z,23.69
2019-04-30T13:00:20.950Z,23.68
2019-04-30T13:01:20.935Z,23.46
2019-04-30T13:02:20.925Z,23.32
2019-04-30T13:03:20.915Z,22.85
2019-04-30T13:04:20.904Z,22.76